メインページ
METAR-TAF:

METAR-TAF

空港 :

大分空港

大分, 日本

緯度: 33-29N, 経度: 131-44E, 海抜: 5m

現時点の気象観測

当レポートは49分前の11:00(UTC)に作成
南東の風 5kt
気温 17°C
湿度 82%
気圧 1017 hPa
視程10km以上
高度3000ftの雲はほとんどない
高度13000ftの雲は散在している
高度17000ftの千切れ雲あり

METAR: RJFO 201100Z 13005KT 9999 FEW030 SCT130 BKN170 17/14 Q1017

時間: 20:49 (11:49 UTC)

予報

当レポートは40分前の11:09(UTC)に作成
予報は20日の 12時(UTC)から 21日の 18時(UTC)まで有効
の風 10kt
視程10km以上
高度3000ftの雲はほとんどない
高度4000ftの千切れ雲あり

TAF: RJFO 201109Z 2012/2118 10010KT 9999 FEW030 BKN040

4,000以上の空港の気象観測と天気予報(METAR報とTAF報)

利用可能な観測所は地図上に黄色い丸と赤い丸で示す。

丸の上にカーソルを重ねると観測所名を参照できる。

次にクリックすると気象観測と天気予報を参照できる。

マップの切り替え:黒色「×」印の緑ボタンをクリックして拡大、「-」印の緑ボタンをクリックして縮小、緑色の三角印をクリックして隣りの地図に切り替え


METAR-TAF: